Time;durP1;ratioP1;P1;durP2;ratioP2;P2;SDS_P1;SDS_P2;PMS_P1;PMS_P2;Temp;Humidity;BMP_temperature;BMP_pressure;BME280_temperature;BME280_humidity;BME280_pressure;Samples;Min_cycle;Max_cycle;Signal;HPM_P1;HPM_P2
2022/07/22 00:00:11;;;;;;;19.83;17.75;;;21.10;76.00;;;20.14;95.16;96386.25;4948313;28;20055;-68
2022/07/22 00:02:37;;;;;;;19.08;17.10;;;21.10;76.30;;;20.08;95.80;96381.03;4920949;29;20538;-68
2022/07/22 00:05:03;;;;;;;21.25;17.65;;;21.00;76.80;;;20.05;96.08;96382.34;4948782;28;20047;-69
2022/07/22 00:07:29;;;;;;;20.45;18.30;;;21.00;76.90;;;20.00;96.46;96379.59;4933299;28;20426;-69
2022/07/22 00:09:55;;;;;;;20.35;18.15;;;20.90;77.00;;;19.93;96.87;96378.94;4948997;28;20047;-69
2022/07/22 00:12:20;;;;;;;20.15;17.40;;;20.80;77.40;;;19.90;97.63;96376.72;4933538;29;20047;-69
2022/07/22 00:14:46;;;;;;;19.05;17.00;;;20.90;77.60;;;19.88;98.29;96370.81;4951595;28;20039;-69
2022/07/22 00:17:12;;;;;;;18.98;17.17;;;20.80;77.70;;;19.87;97.35;96378.03;4948402;28;20047;-69
2022/07/22 00:19:38;;;;;;;19.20;16.98;;;20.90;77.60;;;19.87;98.08;96379.88;4950352;28;20122;-69
2022/07/22 00:22:03;;;;;;;20.35;18.27;;;20.90;77.50;;;19.86;98.73;96372.94;4933857;28;20036;-69
2022/07/22 00:24:29;;;;;;;19.50;17.38;;;20.90;77.50;;;19.82;98.36;96371.78;4933377;29;20130;-69
2022/07/22 00:26:55;;;;;;;20.45;18.35;;;20.80;77.50;;;19.81;97.98;96362.16;4936258;28;20059;-68
2022/07/22 00:29:21;;;;;;;20.05;17.70;;;20.80;77.30;;;19.79;97.77;96358.94;4931484;29;20758;-69
2022/07/22 00:31:46;;;;;;;19.50;17.30;;;20.80;77.40;;;19.76;98.15;96362.09;4964400;28;20534;-69
2022/07/22 00:34:12;;;;;;;19.02;17.10;;;20.70;77.40;;;19.73;98.29;96359.91;4931445;28;20043;-69
2022/07/22 00:36:38;;;;;;;20.27;18.17;;;20.70;77.60;;;19.67;98.75;96353.63;4917529;29;20609;-68
2022/07/22 00:39:04;;;;;;;19.33;17.23;;;20.70;77.80;;;19.64;98.64;96353.31;4947983;28;20455;-68
2022/07/22 00:41:29;;;;;;;20.00;17.95;;;20.60;78.10;;;19.61;99.08;96359.13;4933048;28;20734;-69
2022/07/22 00:44:00;;;;;;;21.50;19.30;;;20.60;78.10;;;19.58;99.87;96361.22;4948124;28;20087;-68
2022/07/22 00:46:26;;;;;;;20.35;18.50;;;20.60;78.50;;;19.54;100.00;96359.28;4935183;28;20089;-69
2022/07/22 00:48:53;;;;;;;21.20;19.08;;;20.60;78.70;;;19.52;100.00;96351.50;4952061;28;20141;-68
2022/07/22 00:51:19;;;;;;;19.90;17.90;;;20.50;79.00;;;19.51;100.00;96352.53;4947982;28;20470;-68
2022/07/22 00:53:46;;;;;;;20.02;17.23;;;20.60;78.90;;;19.51;100.00;96354.41;4945278;28;20044;-69
2022/07/22 00:56:11;;;;;;;19.30;17.17;;;20.60;78.80;;;19.51;100.00;96352.53;4930222;29;20051;-69
2022/07/22 00:58:37;;;;;;;20.23;18.08;;;20.50;78.60;;;19.48;100.00;96353.03;4932073;28;20032;-69
2022/07/22 01:01:03;;;;;;;19.35;17.55;;;20.50;78.60;;;19.46;100.00;96343.63;4933497;28;20035;-69
2022/07/22 01:03:29;;;;;;;21.13;17.38;;;20.50;78.70;;;19.42;100.00;96351.28;4933039;28;20039;-68
2022/07/22 01:05:54;;;;;;;18.90;16.75;;;20.40;78.90;;;19.40;100.00;96348.06;4965145;28;20523;-69
2022/07/22 01:08:20;;;;;;;18.00;16.20;;;20.50;78.80;;;19.38;100.00;96342.16;4949072;28;20067;-68
2022/07/22 01:10:46;;;;;;;19.60;17.60;;;20.40;78.90;;;19.38;100.00;96355.47;4962962;28;20043;-68
2022/07/22 01:13:12;;;;;;;20.67;17.85;;;20.40;78.90;;;19.34;100.00;96346.34;4947990;28;20577;-69
2022/07/22 01:15:38;;;;;;;19.30;17.40;;;20.40;78.80;;;19.33;100.00;96342.06;4965911;28;20039;-69
2022/07/22 01:18:04;;;;;;;18.17;16.38;;;20.40;78.70;;;19.32;100.00;96340.44;4951953;28;20122;-69
2022/07/22 01:20:30;;;;;;;18.80;16.95;;;20.30;78.80;;;19.30;100.00;96344.41;4920119;28;20110;-69
2022/07/22 01:22:55;;;;;;;18.63;16.80;;;20.30;78.80;;;19.29;100.00;96340.91;4949624;28;20043;-69
2022/07/22 01:25:21;;;;;;;19.60;16.92;;;20.20;78.60;;;19.25;100.00;96345.13;4934517;28;20956;-68
2022/07/22 01:27:47;;;;;;;20.83;17.15;;;20.20;78.60;;;19.21;100.00;96339.41;4954193;28;20482;-69
2022/07/22 01:30:12;;;;;;;19.27;17.35;;;20.20;78.70;;;19.19;100.00;96336.19;4952405;28;20582;-69
2022/07/22 01:32:38;;;;;;;20.73;18.58;;;20.10;78.50;;;19.15;100.00;96344.91;4936786;28;20581;-68
2022/07/22 01:35:04;;;;;;;19.55;17.65;;;20.20;78.50;;;19.12;100.00;96346.19;4951200;28;20055;-68
2022/07/22 01:37:33;;;;;;;19.00;16.63;;;20.10;78.30;;;19.06;100.00;96347.13;4936790;28;20043;-69
2022/07/22 01:39:58;;;;;;;18.00;16.20;;;20.00;78.40;;;19.02;100.00;96342.53;4950655;28;20043;-69
2022/07/22 01:42:24;;;;;;;18.05;16.00;;;20.00;78.40;;;18.97;99.56;96338.69;4952470;28;20533;-69
2022/07/22 01:44:50;;;;;;;17.23;15.43;;;20.00;78.30;;;18.94;99.51;96352.47;4969147;28;20035;-69
2022/07/22 01:47:16;;;;;;;19.02;14.70;;;19.90;78.10;;;18.89;100.00;96347.06;4950356;28;22263;-68
2022/07/22 01:49:41;;;;;;;16.75;14.98;;;19.90;77.90;;;18.88;99.78;96344.63;4950054;28;20075;-69
2022/07/22 01:52:07;;;;;;;17.02;15.43;;;19.90;78.00;;;18.83;100.00;96342.66;4921750;29;20102;-68
2022/07/22 01:54:33;;;;;;;17.58;15.77;;;19.80;78.20;;;18.76;99.61;96341.16;4935950;28;20063;-68
2022/07/22 01:56:59;;;;;;;17.45;15.70;;;19.70;78.20;;;18.71;99.10;96349.06;4970416;28;20395;-68
2022/07/22 01:59:24;;;;;;;17.33;15.20;;;19.60;78.40;;;18.69;100.00;96343.16;4954468;28;20039;-68
2022/07/22 02:01:50;;;;;;;18.38;16.48;;;19.60;78.70;;;18.66;99.68;96341.75;4965901;28;20043;-69
2022/07/22 02:04:16;;;;;;;17.55;15.70;;;19.60;78.10;;;18.62;99.80;96344.09;4952156;28;20554;-69
2022/07/22 02:06:42;;;;;;;18.10;16.27;;;19.60;78.00;;;18.58;99.40;96337.56;4951026;28;21058;-68
2022/07/22 02:09:07;;;;;;;19.45;17.23;;;19.60;78.40;;;18.56;100.00;96346.84;4950972;28;20451;-68
2022/07/22 02:11:33;;;;;;;18.88;16.88;;;19.50;78.60;;;18.51;100.00;96339.53;4970349;28;20077;-69
2022/07/22 02:13:59;;;;;;;19.70;16.05;;;19.50;78.90;;;18.51;100.00;96338.72;4951600;28;20050;-68
2022/07/22 02:16:25;;;;;;;19.17;16.75;;;19.50;78.80;;;18.50;100.00;96337.09;4966821;28;20609;-69
2022/07/22 02:18:50;;;;;;;19.58;17.35;;;19.50;78.80;;;18.46;100.00;96336.75;4951241;28;20582;-69
2022/07/22 02:21:16;;;;;;;19.08;17.08;;;19.50;78.80;;;18.42;100.00;96342.78;4935687;28;20073;-68
2022/07/22 02:23:42;;;;;;;19.17;17.38;;;19.50;79.10;;;18.40;100.00;96332.38;4955249;28;20051;-69
2022/07/22 02:26:08;;;;;;;20.00;17.90;;;19.40;79.10;;;18.36;100.00;96326.72;4968498;28;20043;-69
2022/07/22 02:28:34;;;;;;;19.30;17.30;;;19.30;79.60;;;18.34;100.00;96334.13;4955274;28;20035;-69
2022/07/22 02:30:59;;;;;;;20.95;18.77;;;19.30;79.60;;;18.30;100.00;96330.28;4922210;28;20471;-68
2022/07/22 02:33:25;;;;;;;19.67;17.73;;;19.30;79.50;;;18.28;100.00;96337.69;4951960;28;20131;-69
2022/07/22 02:35:51;;;;;;;17.45;15.77;;;19.30;79.70;;;18.28;100.00;96327.03;4920405;29;20062;-68
2022/07/22 02:38:17;;;;;;;18.45;16.67;;;19.30;79.40;;;18.29;100.00;96333.16;4950703;28;20059;-69
2022/07/22 02:40:43;;;;;;;17.23;15.43;;;19.30;78.90;;;18.27;100.00;96330.75;4953533;28;20043;-68
2022/07/22 02:43:08;;;;;;;17.92;16.30;;;19.30;78.20;;;18.23;100.00;96326.13;4957136;28;20086;-68
2022/07/22 02:45:34;;;;;;;18.35;16.65;;;19.20;78.60;;;18.19;100.00;96331.09;4935922;28;20075;-69
2022/07/22 02:48:00;;;;;;;20.67;17.50;;;19.20;79.10;;;18.14;100.00;96332.84;4951230;28;20212;-68
2022/07/22 02:50:26;;;;;;;18.83;16.92;;;19.10;79.30;;;18.11;100.00;96330.63;4949434;28;20515;-69
2022/07/22 02:52:51;;;;;;;17.63;15.93;;;19.20;79.60;;;18.12;100.00;96333.06;4950848;28;20511;-69
2022/07/22 02:55:17;;;;;;;17.85;16.13;;;19.20;79.40;;;18.12;100.00;96325.09;4948553;28;20116;-68
2022/07/22 02:57:43;;;;;;;18.23;16.40;;;19.20;79.50;;;18.11;100.00;96339.44;4966832;28;20047;-69
2022/07/22 03:00:11;;;;;;;19.38;17.42;;;19.10;79.30;;;18.06;100.00;96336.63;4950912;28;20097;-68
2022/07/22 03:02:37;;;;;;;19.60;17.60;;;19.10;79.50;;;18.04;100.00;96336.06;4934902;28;20125;-69
2022/07/22 03:05:04;;;;;;;22.23;18.15;;;19.10;79.80;;;18.08;100.00;96339.06;4936587;28;20043;-69
2022/07/22 03:07:30;;;;;;;35.70;31.92;;;19.10;79.80;;;18.08;100.00;96339.88;4950234;28;20118;-68
2022/07/22 03:09:55;;;;;;;32.72;29.33;;;19.10;79.90;;;18.07;100.00;96338.25;4950085;28;20905;-70
2022/07/22 03:12:21;;;;;;;20.77;18.60;;;19.10;79.10;;;18.06;100.00;96344.63;4949615;28;20040;-69
2022/07/22 03:14:47;;;;;;;19.50;17.60;;;19.10;78.50;;;17.98;100.00;96340.44;4950743;28;20553;-69
2022/07/22 03:17:13;;;;;;;40.00;35.97;;;19.00;78.70;;;17.94;100.00;96333.16;4949501;28;20805;-68
2022/07/22 03:19:38;;;;;;;42.78;38.17;;;19.00;79.40;;;17.92;100.00;96340.56;4933858;28;20578;-69
2022/07/22 03:22:04;;;;;;;31.92;28.75;;;19.00;79.80;;;17.91;100.00;96333.63;4947927;28;20086;-68
2022/07/22 03:24:30;;;;;;;28.35;25.38;;;19.00;80.20;;;17.90;100.00;96335.47;4918152;29;20503;-69
2022/07/22 03:26:55;;;;;;;25.13;22.20;;;18.90;80.50;;;17.90;100.00;96335.47;4950483;28;20038;-68
2022/07/22 03:29:21;;;;;;;54.22;48.45;;;18.90;81.00;;;17.92;100.00;96344.03;4935096;28;20861;-69
2022/07/22 03:31:47;;;;;;;36.80;32.90;;;19.00;81.00;;;17.93;100.00;96342.19;4949399;28;20039;-68
2022/07/22 03:34:13;;;;;;;25.02;22.42;;;19.00;80.60;;;17.95;100.00;96348.09;4948848;28;20063;-69
2022/07/22 03:36:38;;;;;;;20.35;18.20;;;19.00;79.80;;;17.94;100.00;96338.47;4932836;28;21869;-69
2022/07/22 03:39:04;;;;;;;20.23;18.15;;;19.00;79.50;;;17.94;100.00;96336.63;4949766;28;20380;-69
2022/07/22 03:41:30;;;;;;;18.60;16.70;;;19.10;78.90;;;17.93;100.00;96336.88;4948652;28;20046;-69
2022/07/22 03:43:56;;;;;;;17.55;15.85;;;19.00;78.30;;;17.94;100.00;96346.47;4950103;28;20027;-69
2022/07/22 03:46:21;;;;;;;16.33;14.73;;;19.00;78.20;;;17.91;100.00;96346.94;4949342;28;20054;-69
2022/07/22 03:48:47;;;;;;;22.80;20.40;;;19.00;78.20;;;17.83;100.00;96334.75;4965847;28;20570;-68
2022/07/22 03:51:13;;;;;;;24.88;22.48;;;18.80;78.20;;;17.77;100.00;96345.50;4948090;28;20118;-68
2022/07/22 03:53:39;;;;;;;16.70;15.15;;;18.80;78.40;;;17.74;100.00;96344.91;4932922;28;20047;-68
2022/07/22 03:56:05;;;;;;;15.63;14.18;;;18.80;78.80;;;17.72;100.00;96347.00;4951407;28;20432;-69
2022/07/22 03:58:31;;;;;;;16.25;14.75;;;18.80;79.10;;;17.71;100.00;96344.56;4949332;28;20717;-69
2022/07/22 04:00:57;;;;;;;16.58;15.07;;;18.80;79.30;;;17.71;100.00;96350.69;4918035;28;20031;-69
2022/07/22 04:03:23;;;;;;;17.80;15.38;;;18.80;79.50;;;17.69;100.00;96346.66;4949905;28;20055;-69
2022/07/22 04:05:48;;;;;;;17.27;15.57;;;18.80;79.70;;;17.69;100.00;96347.47;4931114;28;20131;-70
2022/07/22 04:08:16;;;;;;;18.33;16.55;;;18.80;79.90;;;17.69;100.00;96343.97;4947334;28;20047;-69
2022/07/22 04:10:42;;;;;;;19.00;17.20;;;18.70;80.00;;;17.68;100.00;96343.19;4931013;28;20038;-68
2022/07/22 04:13:07;;;;;;;18.63;16.63;;;18.80;80.00;;;17.69;100.00;96344.78;4938714;28;20495;-67
2022/07/22 04:15:33;;;;;;;20.08;17.85;;;18.80;80.10;;;17.68;100.00;96345.84;4948562;28;20027;-66
2022/07/22 04:17:59;;;;;;;20.58;17.75;;;18.70;80.00;;;17.69;100.00;96336.81;4964546;28;20048;-68
2022/07/22 04:20:25;;;;;;;19.70;17.63;;;18.80;80.00;;;17.70;100.00;96349.06;4964293;28;20065;-66
2022/07/22 04:22:50;;;;;;;21.52;19.38;;;18.80;79.80;;;17.71;100.00;96336.59;4947668;28;20043;-65
2022/07/22 04:25:16;;;;;;;23.15;20.77;;;18.80;79.30;;;17.69;100.00;96334.16;4944787;28;20058;-66
2022/07/22 04:27:42;;;;;;;23.50;21.08;;;18.90;79.30;;;17.69;100.00;96334.16;4916512;29;20526;-65
2022/07/22 04:30:08;;;;;;;21.08;18.85;;;18.80;79.40;;;17.71;100.00;96340.06;4947201;28;20027;-65
2022/07/22 04:32:34;;;;;;;21.65;19.50;;;18.90;79.50;;;17.74;100.00;96336.94;4948940;28;20113;-65
2022/07/22 04:35:00;;;;;;;21.00;19.00;;;18.90;79.30;;;17.77;100.00;96337.50;4928531;28;20443;-66
2022/07/22 04:37:25;;;;;;;21.25;19.15;;;19.00;79.20;;;17.79;100.00;96330.13;4946724;28;20044;-66
2022/07/22 04:39:51;;;;;;;20.25;18.15;;;19.00;79.10;;;17.83;100.00;96333.94;4946064;28;20059;-65
2022/07/22 04:42:17;;;;;;;32.45;29.15;;;19.10;79.10;;;17.86;100.00;96333.47;4952644;28;20067;-68
2022/07/22 04:44:44;;;;;;;46.92;41.75;;;19.10;79.40;;;17.89;100.00;96335.69;4913856;29;20040;-65
2022/07/22 04:47:11;;;;;;;42.75;38.40;;;19.10;79.80;;;17.92;100.00;96340.56;4960837;28;20503;-66
2022/07/22 04:49:36;;;;;;;27.35;24.50;;;19.20;80.20;;;17.96;100.00;96342.53;4927583;28;20034;-66
2022/07/22 04:52:03;;;;;;;24.58;21.80;;;19.30;80.40;;;18.01;100.00;96350.63;4948647;28;20039;-66
2022/07/22 04:54:28;;;;;;;25.70;22.52;;;19.30;80.60;;;18.00;100.00;96343.69;4964574;28;20090;-65
2022/07/22 04:56:54;;;;;;;23.45;21.05;;;19.30;81.00;;;18.01;100.00;96349.81;4932490;28;20797;-66
2022/07/22 04:59:20;;;;;;;22.98;20.58;;;19.30;81.00;;;18.00;100.00;96348.19;4957053;28;20054;-68
2022/07/22 05:01:45;;;;;;;22.17;19.90;;;19.30;81.10;;;18.01;100.00;96339.19;4945413;28;20039;-68
2022/07/22 05:04:11;;;;;;;21.52;19.27;;;19.20;81.10;;;18.00;100.00;96342.88;4947107;28;20035;-68
2022/07/22 05:06:37;;;;;;;20.95;18.88;;;19.10;81.00;;;17.98;100.00;96345.78;4953225;28;20244;-68
2022/07/22 05:09:03;;;;;;;21.88;19.67;;;19.20;81.00;;;17.97;100.00;96344.16;4963264;28;20461;-67
2022/07/22 05:11:29;;;;;;;20.00;17.88;;;19.20;81.10;;;17.98;100.00;96342.31;4949590;28;20407;-67
2022/07/22 05:13:54;;;;;;;22.20;19.42;;;19.20;81.10;;;18.00;100.00;96342.88;4926995;28;20106;-67
2022/07/22 05:16:20;;;;;;;20.65;18.25;;;19.30;81.20;;;18.04;100.00;96349.34;4958966;28;20106;-66
2022/07/22 05:18:46;;;;;;;22.77;20.45;;;19.30;81.10;;;18.05;100.00;96343.81;4956645;28;20130;-68
2022/07/22 05:21:11;;;;;;;23.27;20.98;;;19.40;81.20;;;18.10;100.00;96345.78;4944154;28;20130;-67
2022/07/22 05:23:37;;;;;;;22.90;20.55;;;19.50;81.10;;;18.15;100.00;96343.25;4944283;28;20067;-67
2022/07/22 05:26:05;;;;;;;26.83;21.15;;;19.50;81.10;;;18.22;100.00;96351.13;4931084;28;20118;-66
2022/07/22 05:28:30;;;;;;;22.75;20.35;;;19.60;80.80;;;18.28;100.00;96343.00;4946547;28;20031;-65
2022/07/22 05:30:56;;;;;;;22.90;20.48;;;19.60;80.60;;;18.33;100.00;96332.50;4929686;28;20027;-66
2022/07/22 05:33:22;;;;;;;31.48;27.75;;;19.70;80.50;;;18.40;100.00;96326.25;4953548;28;20138;-69
2022/07/22 05:35:48;;;;;;;34.05;30.45;;;19.80;80.50;;;18.49;100.00;96338.16;4924754;29;20062;-65
2022/07/22 05:38:13;;;;;;;34.38;30.65;;;20.00;80.20;;;18.57;100.00;96340.47;4946624;28;20054;-66
2022/07/22 05:40:39;;;;;;;43.83;36.17;;;20.10;79.70;;;18.65;100.00;96335.63;4906232;29;20130;-66
2022/07/22 05:43:05;;;;;;;23.45;20.70;;;20.10;79.60;;;18.71;100.00;96333.88;4953585;28;20043;-66
2022/07/22 05:45:31;;;;;;;22.05;19.23;;;20.10;78.90;;;18.79;100.00;96336.19;4962982;28;20167;-66
2022/07/22 05:47:56;;;;;;;20.80;18.70;;;20.30;79.10;;;18.90;100.00;96331.88;4961488;28;20046;-66
2022/07/22 05:50:22;;;;;;;25.08;18.40;;;20.50;78.70;;;19.03;100.00;96334.28;4947273;28;20031;-65
2022/07/22 05:52:48;;;;;;;22.23;18.48;;;20.60;78.40;;;19.13;100.00;96326.47;4929894;28;20144;-66
2022/07/22 05:55:14;;;;;;;20.92;18.75;;;20.70;77.60;;;19.26;100.00;96330.72;4945269;28;20040;-64
2022/07/22 05:57:39;;;;;;;21.63;18.15;;;21.00;77.50;;;19.40;100.00;96334.72;4950826;28;20055;-66
2022/07/22 06:00:06;;;;;;;20.20;18.15;;;21.10;77.00;;;19.55;100.00;96340.38;4931346;28;20075;-65
2022/07/22 06:02:32;;;;;;;20.10;17.98;;;21.30;76.50;;;19.68;100.00;96328.56;4949534;28;20114;-68
2022/07/22 06:05:00;;;;;;;18.90;16.67;;;21.50;75.50;;;19.84;100.00;96329.66;4917674;28;20042;-71
2022/07/22 06:07:28;;;;;;;19.48;17.00;;;21.70;75.20;;;20.01;100.00;96332.34;4950688;28;20402;-66
2022/07/22 06:09:54;;;;;;;20.77;17.58;;;21.80;74.30;;;20.18;100.00;96336.63;4934048;28;20126;-65
2022/07/22 06:12:20;;;;;;;18.27;16.40;;;22.10;73.90;;;20.35;100.00;96335.78;4933503;28;20494;-66
2022/07/22 06:14:46;;;;;;;19.15;15.93;;;22.40;72.80;;;20.54;100.00;96331.81;4948175;28;20051;-66
2022/07/22 06:17:12;;;;;;;16.92;15.23;;;22.60;72.30;;;20.73;100.00;96335.03;4918737;28;20083;-65
2022/07/22 06:19:38;;;;;;;18.05;16.20;;;22.80;71.70;;;20.91;99.25;96336.59;4918380;28;20506;-66
2022/07/22 06:22:04;;;;;;;17.08;15.32;;;23.00;70.30;;;21.09;98.01;96328.28;4936492;28;20135;-65
2022/07/22 06:24:29;;;;;;;17.45;15.70;;;23.30;69.30;;;21.28;97.04;96337.63;4916863;28;20050;-65
2022/07/22 06:26:55;;;;;;;18.58;15.55;;;23.50;68.60;;;21.47;95.53;96337.28;4918498;29;20046;-66
2022/07/22 06:29:21;;;;;;;17.92;15.90;;;23.70;66.80;;;21.62;92.90;96343.59;4933104;28;20135;-66
2022/07/22 06:31:47;;;;;;;19.55;15.57;;;23.90;66.30;;;21.78;92.58;96336.53;4933395;29;20246;-66
2022/07/22 06:34:12;;;;;;;19.83;15.43;;;24.10;66.10;;;21.98;92.28;96344.75;4917759;29;20038;-65
2022/07/22 06:36:38;;;;;;;19.45;16.55;;;24.40;65.70;;;22.14;91.24;96334.97;4918141;29;20070;-66
2022/07/22 06:39:04;;;;;;;18.23;16.20;;;24.50;64.90;;;22.30;89.80;96339.41;4949230;28;20074;-66
2022/07/22 06:41:30;;;;;;;17.20;15.43;;;24.60;64.30;;;22.49;89.27;96337.13;4965780;28;20039;-65
2022/07/22 06:43:55;;;;;;;16.05;14.40;;;24.90;63.80;;;22.69;87.98;96324.91;4918317;28;20042;-65
2022/07/22 06:46:21;;;;;;;16.52;14.88;;;25.10;63.00;;;22.91;87.21;96333.63;4950350;28;20035;-65
2022/07/22 06:48:47;;;;;;;16.70;15.00;;;25.40;62.20;;;23.08;85.90;96333.41;4921378;28;20113;-65
2022/07/22 06:51:12;;;;;;;16.92;13.40;;;25.60;61.70;;;23.27;85.68;96331.06;4948254;28;20034;-65
2022/07/22 06:53:38;;;;;;;17.08;15.20;;;25.80;61.70;;;23.45;84.92;96330.59;4949722;28;20415;-68
2022/07/22 06:56:05;;;;;;;15.98;13.63;;;26.10;60.50;;;23.66;84.20;96334.16;4918616;29;20123;-65
2022/07/22 06:58:30;;;;;;;16.65;13.52;;;26.30;60.60;;;23.86;83.60;96333.41;4917741;28;20043;-65
2022/07/22 07:00:56;;;;;;;15.35;12.82;;;26.60;59.90;;;24.04;82.22;96330.19;4948966;28;20448;-68
2022/07/22 07:03:25;;;;;;;15.55;13.90;;;26.70;59.10;;;24.22;81.37;96323.47;4949018;28;20482;-67
2022/07/22 07:05:51;;;;;;;16.75;13.35;;;27.00;57.10;;;24.39;80.90;96332.06;4933661;28;20475;-66
2022/07/22 07:08:17;;;;;;;18.23;12.63;;;27.10;57.50;;;24.59;80.71;96329.34;4932554;28;20557;-66
2022/07/22 07:10:42;;;;;;;16.10;12.52;;;27.50;57.40;;;24.84;81.08;96323.09;4929643;28;20047;-66
2022/07/22 07:13:09;;;;;;;16.15;13.35;;;27.80;57.30;;;25.08;79.74;96322.50;4925665;28;20046;-67
2022/07/22 07:15:34;;;;;;;15.27;12.23;;;28.10;56.10;;;25.32;78.89;96323.47;4964908;28;20045;-67
2022/07/22 07:18:00;;;;;;;14.30;12.77;;;28.30;54.90;;;25.58;77.21;96327.66;4949362;28;20459;-66
2022/07/22 07:20:26;;;;;;;16.63;12.88;;;28.60;53.00;;;25.84;75.49;96319.44;4948402;28;20577;-66
2022/07/22 07:22:52;;;;;;;18.77;11.20;;;28.90;52.20;;;26.12;74.46;96321.38;4916209;28;20591;-67
2022/07/22 07:25:17;;;;;;;12.52;10.52;;;29.20;51.80;;;26.39;73.54;96323.59;4931856;28;20039;-67
2022/07/22 07:27:43;;;;;;;15.07;11.27;;;29.50;50.90;;;26.63;70.85;96320.94;4948988;28;20059;-66
2022/07/22 07:30:10;;;;;;;16.77;10.85;;;29.60;48.60;;;26.89;69.35;96317.94;4964176;28;20047;-66
2022/07/22 07:32:36;;;;;;;13.45;9.95;;;29.90;48.70;;;27.15;68.16;96313.88;4947095;28;20609;-65
2022/07/22 07:35:04;;;;;;;14.75;10.77;;;30.10;48.20;;;27.37;67.30;96316.84;4947703;28;20507;-65
2022/07/22 07:37:30;;;;;;;11.75;10.00;;;30.40;47.40;;;27.64;67.31;96315.44;4964392;28;20459;-65
2022/07/22 07:39:56;;;;;;;12.98;9.85;;;30.70;47.60;;;27.88;66.34;96316.16;4932492;28;20126;-65
2022/07/22 07:42:21;;;;;;;13.95;9.95;;;30.90;46.80;;;28.13;65.41;96309.53;4916350;29;20051;-67
2022/07/22 07:44:47;;;;;;;12.52;9.90;;;31.10;45.80;;;28.40;63.97;96303.44;4932814;28;20043;-69
2022/07/22 07:47:17;;;;;;;12.98;9.77;;;31.50;44.70;;;28.64;63.20;96304.06;4950318;28;20494;-67
2022/07/22 07:49:46;;;;;;;11.98;10.13;;;31.80;44.30;;;28.92;60.61;96294.06;4933292;29;20086;-68
2022/07/22 07:52:12;;;;;;;9.90;8.68;;;32.10;44.00;;;29.19;61.38;96303.28;4933560;28;20035;-66
2022/07/22 07:54:39;;;;;;;10.30;8.57;;;32.40;43.50;;;29.52;60.64;96301.25;4933309;29;20031;-66
2022/07/22 07:57:06;;;;;;;10.18;9.00;;;32.80;43.10;;;29.82;58.48;96299.75;4950705;28;20039;-68
2022/07/22 07:59:32;;;;;;;11.20;8.88;;;32.90;40.70;;;30.04;56.91;96302.50;4964030;28;20035;-66
2022/07/22 08:01:58;;;;;;;9.98;8.65;;;33.10;40.60;;;30.27;56.69;96295.16;4947015;28;20045;-67
2022/07/22 08:04:24;;;;;;;10.25;8.63;;;33.30;40.60;;;30.47;55.64;96285.69;4949275;28;20090;-68
2022/07/22 08:06:50;;;;;;;9.32;8.32;;;33.50;39.50;;;30.70;55.52;96289.19;4947920;28;20059;-67
2022/07/22 08:09:15;;;;;;;9.80;8.40;;;33.80;40.10;;;30.91;54.31;96292.94;4932646;28;20039;-67
2022/07/22 08:11:41;;;;;;;11.05;8.15;;;34.00;39.00;;;31.13;53.12;96283.09;4965097;28;20511;-67
2022/07/22 08:14:07;;;;;;;9.60;7.90;;;34.00;38.40;;;31.33;52.79;96282.53;4947501;28;20510;-67
2022/07/22 08:16:33;;;;;;;9.80;7.50;;;34.10;39.80;;;31.49;51.97;96286.41;4963610;28;20083;-65
2022/07/22 08:18:58;;;;;;;9.10;7.88;;;34.20;38.90;;;31.64;50.80;96280.47;4947755;28;20090;-68
2022/07/22 08:21:25;;;;;;;8.20;7.20;;;34.50;37.40;;;31.70;50.28;96281.16;4939172;28;20602;-66
2022/07/22 08:23:51;;;;;;;10.43;7.90;;;34.70;37.30;;;31.84;50.05;96286.44;4964224;28;20142;-64
2022/07/22 08:26:17;;;;;;;8.63;7.53;;;35.00;37.30;;;32.05;49.33;96287.38;4947688;28;20051;-67
2022/07/22 08:28:43;;;;;;;10.55;8.02;;;35.30;35.80;;;32.25;49.25;96280.47;4947752;28;20042;-66
2022/07/22 08:31:09;;;;;;;10.27;7.18;;;35.50;35.80;;;32.43;48.77;96286.72;4950031;28;20093;-67
2022/07/22 08:33:34;;;;;;;11.98;8.00;;;35.70;35.70;;;32.55;46.79;96281.38;4946289;28;20432;-66
2022/07/22 08:36:00;;;;;;;10.50;7.70;;;35.80;33.90;;;32.67;46.43;96277.97;4947099;28;20602;-64
2022/07/22 08:38:26;;;;;;;7.55;6.75;;;35.80;34.40;;;32.92;47.01;96281.75;4962611;28;20098;-65
2022/07/22 08:40:55;;;;;;;8.35;7.53;;;36.20;35.20;;;33.11;45.54;96273.97;4963170;28;20046;-69
2022/07/22 08:43:21;;;;;;;9.87;7.87;;;36.40;34.50;;;33.33;45.77;96268.25;4956932;28;20035;-63
2022/07/22 08:45:48;;;;;;;10.73;7.60;;;36.60;33.90;;;33.54;45.19;96264.72;4949442;28;20290;-63
2022/07/22 08:48:14;;;;;;;11.32;7.85;;;36.70;32.90;;;33.67;43.63;96269.09;4947085;28;20043;-63
2022/07/22 08:50:40;;;;;;;8.00;7.10;;;36.70;32.20;;;33.77;43.43;96258.59;4915927;29;20566;-64
2022/07/22 08:53:11;;;;;;;8.23;7.28;;;36.60;32.40;;;33.91;41.24;96266.53;4961688;28;20416;-63
2022/07/22 08:55:44;;;;;;;9.52;7.20;;;36.90;33.20;;;34.10;40.50;96253.16;4931035;29;20031;-63
2022/07/22 08:58:11;;;;;;;10.80;7.00;;;37.00;32.70;;;34.19;41.86;96255.03;4963302;28;20546;-65
2022/07/22 09:00:37;;;;;;;7.32;6.63;;;36.90;31.40;;;34.33;41.47;96252.78;4931570;28;20031;-66
2022/07/22 09:03:27;;;;;;;9.57;7.03;;;37.30;31.80;;;34.52;38.46;96250.34;4961669;28;20068;-64
2022/07/22 09:05:53;;;;;;;7.38;6.15;;;37.50;31.10;;;34.68;40.44;96243.09;4952211;28;20108;-62
2022/07/22 09:08:20;;;;;;;7.03;6.15;;;37.60;30.80;;;34.80;40.06;96244.22;4947202;28;20056;-64
2022/07/22 09:10:46;;;;;;;7.55;6.03;;;37.60;31.70;;;34.75;38.94;96252.66;4945683;28;20036;-65
2022/07/22 09:13:12;;;;;;;8.05;6.15;;;37.50;30.40;;;34.82;38.93;96250.94;4946496;28;20685;-63
2022/07/22 09:15:54;;;;;;;6.68;5.75;;;37.60;30.60;;;34.88;35.70;96240.63;4915718;29;20062;-62
2022/07/22 09:18:20;;;;;;;7.03;5.15;;;37.50;29.30;;;34.89;38.21;96243.00;4946933;28;20031;-63
2022/07/22 09:20:47;;;;;;;6.85;5.35;;;37.50;29.90;;;34.96;38.06;96235.03;4943463;28;20098;-63
2022/07/22 09:23:17;;;;;;;6.22;5.32;;;37.70;30.60;;;35.06;36.52;96231.03;4913825;28;20050;-63
2022/07/22 09:25:42;;;;;;;9.95;5.35;;;37.80;29.10;;;35.19;37.48;96221.69;4955126;28;20039;-66
2022/07/22 09:28:09;;;;;;;8.43;5.55;;;38.00;29.80;;;35.37;37.23;96224.97;4946266;28;20060;-69
2022/07/22 09:30:42;;;;;;;7.95;5.78;;;38.10;29.70;;;35.47;36.41;96229.16;4946978;28;20071;-69
2022/07/22 09:33:08;;;;;;;8.00;5.85;;;38.30;29.70;;;35.69;36.67;96230.56;4945681;28;20042;-67
2022/07/22 09:35:33;;;;;;;8.63;6.65;;;38.70;28.60;;;35.78;35.82;96221.09;4964576;28;20039;-66
2022/07/22 09:38:01;;;;;;;10.38;5.88;;;38.60;28.90;;;35.73;35.45;96221.31;4935056;28;20129;-64
2022/07/22 09:40:34;;;;;;;7.57;5.78;;;38.50;28.20;;;35.73;34.27;96213.09;4950868;28;20542;-65
2022/07/22 09:43:05;;;;;;;8.23;5.70;;;38.50;28.80;;;35.84;34.32;96213.44;4964376;28;20047;-66
2022/07/22 09:45:34;;;;;;;8.25;5.60;;;38.80;28.30;;;35.98;34.84;96216.56;4935505;28;20511;-65
2022/07/22 09:48:00;;;;;;;7.10;5.18;;;39.10;27.90;;;36.15;34.22;96207.22;4950613;28;20601;-66
2022/07/22 09:50:31;;;;;;;8.77;6.05;;;39.20;27.30;;;36.17;33.47;96207.66;4933780;28;20952;-71
2022/07/22 09:52:58;;;;;;;6.15;5.18;;;39.40;27.50;;;36.29;34.26;96204.06;4916815;28;20043;-67
2022/07/22 09:55:25;;;;;;;6.45;5.18;;;39.60;27.10;;;36.45;33.50;96197.50;4949081;28;20039;-67
2022/07/22 09:57:51;;;;;;;6.80;5.53;;;39.70;26.50;;;36.66;33.46;96204.63;4934842;28;20538;-67
2022/07/22 10:00:20;;;;;;;8.73;5.82;;;40.00;26.70;;;36.75;33.72;96194.28;4947916;28;20043;-67